createdAt,value
2019-01-28T00:01:29.746Z,3.03
2019-01-28T00:03:57.903Z,2.30
2019-01-28T00:06:26.052Z,3.10
2019-01-28T00:08:54.192Z,2.87
2019-01-28T00:11:22.351Z,2.53
2019-01-28T00:13:50.483Z,2.77
2019-01-28T00:16:18.611Z,3.33
2019-01-28T00:18:46.770Z,3.37
2019-01-28T00:21:14.904Z,3.57
2019-01-28T00:23:43.035Z,3.57
2019-01-28T00:26:11.372Z,3.50
2019-01-28T00:28:39.519Z,2.43
2019-01-28T00:31:07.651Z,3.47
2019-01-28T00:33:35.828Z,3.93
2019-01-28T00:36:03.957Z,3.77
2019-01-28T00:38:32.092Z,2.87
2019-01-28T00:41:00.256Z,3.33
2019-01-28T00:43:28.388Z,3.73
2019-01-28T00:45:56.521Z,3.77
2019-01-28T00:48:24.679Z,4.37
2019-01-28T00:50:52.807Z,4.03
2019-01-28T00:53:20.939Z,3.53
2019-01-28T00:55:49.101Z,3.53
2019-01-28T00:58:17.236Z,3.60
2019-01-28T01:00:45.368Z,3.20
2019-01-28T01:03:13.527Z,2.57
2019-01-28T01:05:41.663Z,2.57
2019-01-28T01:08:10.093Z,2.10
2019-01-28T01:10:38.251Z,2.53
2019-01-28T01:13:06.856Z,2.60
2019-01-28T01:15:34.987Z,2.70
2019-01-28T01:18:03.348Z,2.93
2019-01-28T01:20:31.688Z,3.53
2019-01-28T01:22:59.825Z,2.87
2019-01-28T01:25:27.983Z,3.00
2019-01-28T01:27:56.111Z,2.83
2019-01-28T01:30:24.240Z,2.87
2019-01-28T01:32:52.407Z,3.00
2019-01-28T01:35:20.539Z,2.57
2019-01-28T01:37:48.667Z,3.07
2019-01-28T01:40:16.833Z,3.17
2019-01-28T01:42:44.963Z,2.60
2019-01-28T01:45:14.236Z,2.33
2019-01-28T01:47:42.400Z,2.97
2019-01-28T01:50:11.311Z,2.90
2019-01-28T01:52:39.448Z,4.03
2019-01-28T01:55:08.979Z,3.27
2019-01-28T01:57:37.619Z,3.27
2019-01-28T02:00:10.372Z,2.70
2019-01-28T02:02:38.529Z,2.80
2019-01-28T02:05:07.027Z,2.80
2019-01-28T02:07:35.169Z,3.60
2019-01-28T02:10:03.803Z,2.70
2019-01-28T02:12:32.250Z,4.23
2019-01-28T02:15:00.379Z,3.03
2019-01-28T02:17:28.547Z,4.15
2019-01-28T02:19:56.682Z,3.10
2019-01-28T02:22:24.824Z,3.30
2019-01-28T02:24:52.987Z,3.43
2019-01-28T02:27:21.308Z,3.70
2019-01-28T02:29:49.447Z,2.93
2019-01-28T02:32:17.916Z,3.30
2019-01-28T02:34:46.060Z,2.80
2019-01-28T02:37:14.200Z,3.20
2019-01-28T02:39:42.379Z,3.13
2019-01-28T02:42:10.513Z,2.83
2019-01-28T02:44:38.641Z,3.53
2019-01-28T02:47:06.819Z,3.73
2019-01-28T02:49:34.951Z,3.67
2019-01-28T02:52:03.088Z,2.50
2019-01-28T02:54:31.252Z,3.33
2019-01-28T02:56:59.379Z,3.00
2019-01-28T02:59:27.510Z,2.53
2019-01-28T03:01:55.677Z,3.00
2019-01-28T03:04:23.803Z,2.63
2019-01-28T03:06:51.936Z,2.40
2019-01-28T03:09:20.103Z,2.67
2019-01-28T03:11:48.237Z,2.27
2019-01-28T03:14:16.379Z,2.43
2019-01-28T03:16:44.553Z,2.57
2019-01-28T03:19:12.956Z,4.50
2019-01-28T03:21:41.080Z,2.27
2019-01-28T03:24:10.057Z,2.60
2019-01-28T03:26:38.191Z,2.33
2019-01-28T03:29:06.316Z,3.43
2019-01-28T03:31:34.888Z,2.97
2019-01-28T03:34:03.022Z,3.40
2019-01-28T03:36:31.158Z,3.27
2019-01-28T03:38:59.408Z,2.77
2019-01-28T03:41:27.655Z,3.57
2019-01-28T03:43:55.826Z,3.13
2019-01-28T03:46:23.995Z,2.73
2019-01-28T03:48:52.135Z,2.90
2019-01-28T03:51:20.272Z,3.03
2019-01-28T03:53:48.517Z,2.53
2019-01-28T03:56:16.640Z,3.47
2019-01-28T03:58:44.771Z,3.37
2019-01-28T04:01:12.938Z,3.10
2019-01-28T04:03:41.070Z,3.50
2019-01-28T04:06:09.209Z,2.50
2019-01-28T04:08:37.385Z,2.73
2019-01-28T04:11:05.516Z,3.00
2019-01-28T04:13:33.644Z,4.20
2019-01-28T04:16:01.814Z,3.97
2019-01-28T04:18:30.054Z,3.50
2019-01-28T04:20:58.191Z,2.67
2019-01-28T04:23:26.344Z,2.70
2019-01-28T04:25:54.487Z,2.47
2019-01-28T04:28:22.665Z,2.70
2019-01-28T04:30:50.821Z,3.87
2019-01-28T04:33:18.947Z,3.50
2019-01-28T04:35:47.084Z,3.23
2019-01-28T04:38:15.244Z,3.27
2019-01-28T04:40:43.634Z,3.10
2019-01-28T04:43:11.761Z,3.30
2019-01-28T04:45:41.057Z,3.30
2019-01-28T04:48:09.162Z,3.17
2019-01-28T04:50:37.288Z,2.63
2019-01-28T04:53:05.447Z,3.07
2019-01-28T04:55:33.581Z,3.57
2019-01-28T04:58:01.715Z,2.90
2019-01-28T05:00:29.885Z,3.57
2019-01-28T05:02:58.113Z,4.20
2019-01-28T05:05:26.252Z,3.10
2019-01-28T05:07:54.407Z,2.83
2019-01-28T05:10:22.554Z,2.43
2019-01-28T05:12:50.683Z,2.70
2019-01-28T05:15:19.303Z,3.57
2019-01-28T05:17:47.445Z,2.77
2019-01-28T05:20:22.609Z,2.70
2019-01-28T05:22:52.535Z,3.57
2019-01-28T05:25:20.668Z,2.37
2019-01-28T05:27:48.831Z,2.63
2019-01-28T05:30:18.587Z,3.60
2019-01-28T05:32:46.715Z,2.53
2019-01-28T05:35:16.158Z,2.80
2019-01-28T05:37:44.292Z,3.00
2019-01-28T05:40:14.085Z,3.50
2019-01-28T05:42:42.356Z,3.13
2019-01-28T05:45:14.583Z,3.30
2019-01-28T05:47:42.717Z,3.33
2019-01-28T05:50:11.672Z,2.60
2019-01-28T05:52:39.822Z,2.83
2019-01-28T05:55:09.329Z,2.63
2019-01-28T05:57:37.492Z,3.27
2019-01-28T06:00:08.336Z,3.37
2019-01-28T06:02:36.476Z,2.97
2019-01-28T06:05:05.770Z,2.97
2019-01-28T06:07:33.899Z,3.37
2019-01-28T06:10:02.038Z,4.07
2019-01-28T06:12:30.199Z,2.80
2019-01-28T06:14:58.336Z,3.47
2019-01-28T06:17:26.468Z,3.17
2019-01-28T06:19:54.635Z,2.77
2019-01-28T06:22:22.772Z,2.93
2019-01-28T06:24:50.908Z,2.27
2019-01-28T06:27:19.069Z,2.97
2019-01-28T06:29:47.204Z,2.40
2019-01-28T06:32:15.724Z,2.77
2019-01-28T06:34:44.095Z,2.60
2019-01-28T06:37:12.235Z,2.40
2019-01-28T06:39:40.369Z,1.87
2019-01-28T06:42:08.645Z,1.90
2019-01-28T06:44:36.768Z,2.53
2019-01-28T06:47:04.912Z,3.20
2019-01-28T06:49:33.082Z,2.67
2019-01-28T06:52:01.208Z,2.77
2019-01-28T06:54:29.341Z,3.13
2019-01-28T06:56:57.503Z,2.27
2019-01-28T06:59:25.642Z,2.67
2019-01-28T07:01:53.787Z,2.87
2019-01-28T07:04:21.943Z,2.80
2019-01-28T07:06:50.080Z,3.10
2019-01-28T07:09:18.352Z,2.97
2019-01-28T07:11:46.531Z,2.67
2019-01-28T07:14:14.671Z,3.50
2019-01-28T07:16:42.808Z,2.70
2019-01-28T07:19:10.967Z,2.73
2019-01-28T07:21:39.111Z,2.13
2019-01-28T07:24:07.384Z,2.98
2019-01-28T07:26:35.548Z,2.40
2019-01-28T07:29:03.700Z,2.27
2019-01-28T07:31:31.823Z,3.07
2019-01-28T07:33:59.988Z,2.27
2019-01-28T07:36:28.385Z,3.77
2019-01-28T07:38:56.515Z,3.60
2019-01-28T07:41:24.686Z,3.07
2019-01-28T07:43:52.824Z,3.57
2019-01-28T07:46:20.959Z,2.77
2019-01-28T07:48:49.124Z,2.77
2019-01-28T07:51:17.256Z,2.83
2019-01-28T07:53:45.436Z,2.97
2019-01-28T07:56:13.639Z,3.27
2019-01-28T07:58:41.767Z,3.90
2019-01-28T08:01:09.900Z,3.90
2019-01-28T08:03:38.063Z,4.13
2019-01-28T08:06:06.266Z,3.30
2019-01-28T08:08:34.392Z,2.93
2019-01-28T08:11:02.556Z,3.10
2019-01-28T08:13:30.692Z,2.80
2019-01-28T08:15:58.832Z,2.70
2019-01-28T08:18:27.020Z,3.00
2019-01-28T08:21:14.599Z,3.50
2019-01-28T08:23:42.775Z,3.60
2019-01-28T08:26:10.944Z,2.63
2019-01-28T08:28:39.067Z,2.47
2019-01-28T08:31:07.280Z,2.57
2019-01-28T08:33:35.440Z,3.13
2019-01-28T08:36:03.575Z,2.20
2019-01-28T08:38:31.752Z,2.30
2019-01-28T08:40:59.902Z,2.77
2019-01-28T08:43:28.079Z,2.60
2019-01-28T08:45:56.329Z,2.53
2019-01-28T08:48:24.462Z,2.63
2019-01-28T08:50:52.624Z,2.87
2019-01-28T08:53:20.983Z,2.90
2019-01-28T08:55:49.124Z,3.53
2019-01-28T08:58:17.285Z,2.40
2019-01-28T09:00:45.455Z,3.87
2019-01-28T09:03:13.848Z,3.43
2019-01-28T09:05:41.996Z,2.57
2019-01-28T09:08:10.192Z,2.70
2019-01-28T09:10:38.340Z,2.80
2019-01-28T09:13:06.552Z,2.97
2019-01-28T09:15:34.759Z,3.83
2019-01-28T09:18:02.926Z,2.40
2019-01-28T09:20:31.839Z,2.13
2019-01-28T09:23:00.056Z,3.03
2019-01-28T09:25:28.237Z,2.67
2019-01-28T09:27:56.389Z,2.80
2019-01-28T09:30:25.760Z,2.70
2019-01-28T09:32:53.904Z,3.67
2019-01-28T09:35:22.081Z,3.53
2019-01-28T09:37:50.279Z,3.90
2019-01-28T09:40:20.044Z,3.43
2019-01-28T09:42:48.193Z,2.90
2019-01-28T09:45:17.728Z,3.10
2019-01-28T09:47:45.867Z,3.37
2019-01-28T09:50:14.978Z,2.63
2019-01-28T09:52:43.139Z,2.47
2019-01-28T09:55:12.538Z,3.00
2019-01-28T09:57:40.671Z,2.80
2019-01-28T10:00:11.030Z,3.20
2019-01-28T10:02:39.195Z,2.83
2019-01-28T10:05:07.323Z,2.47
2019-01-28T10:07:35.487Z,3.60
2019-01-28T10:10:05.243Z,3.07
2019-01-28T10:12:34.664Z,3.07
2019-01-28T10:15:04.761Z,2.37
2019-01-28T10:17:32.891Z,2.90
2019-01-28T10:20:01.024Z,2.57
2019-01-28T10:22:29.308Z,2.70
2019-01-28T10:24:57.450Z,2.50
2019-01-28T10:27:25.580Z,2.20
2019-01-28T10:29:53.758Z,3.27
2019-01-28T10:32:21.888Z,3.37
2019-01-28T10:34:51.641Z,2.87
2019-01-28T10:37:20.969Z,2.30
2019-01-28T10:39:51.059Z,2.63
2019-01-28T10:42:19.197Z,2.60
2019-01-28T10:44:48.123Z,2.10
2019-01-28T10:47:16.251Z,1.90
2019-01-28T10:49:44.386Z,2.77
2019-01-28T10:52:12.565Z,2.67
2019-01-28T10:54:40.675Z,2.20
2019-01-28T10:57:08.807Z,2.07
2019-01-28T10:59:36.972Z,2.53
2019-01-28T11:02:05.107Z,2.53
2019-01-28T11:04:33.420Z,2.43
2019-01-28T11:07:01.587Z,2.27
2019-01-28T11:09:29.787Z,2.00
2019-01-28T11:11:57.865Z,2.20
2019-01-28T11:14:26.009Z,2.73
2019-01-28T11:16:54.371Z,2.27
2019-01-28T11:19:22.541Z,2.93
2019-01-28T11:21:50.775Z,2.33
2019-01-28T11:24:18.915Z,2.50
2019-01-28T11:26:47.116Z,2.20
2019-01-28T11:29:15.378Z,2.40
2019-01-28T11:31:43.482Z,2.00
2019-01-28T11:34:11.691Z,2.10
2019-01-28T11:36:39.833Z,2.67
2019-01-28T11:39:08.825Z,1.77
2019-01-28T11:41:37.334Z,2.33
2019-01-28T11:44:05.632Z,1.70
2019-01-28T11:46:33.920Z,1.90
2019-01-28T11:49:06.015Z,2.10
2019-01-28T11:51:31.890Z,2.17
2019-01-28T11:53:59.999Z,1.87
2019-01-28T11:56:28.147Z,2.33
2019-01-28T11:58:56.300Z,1.83
2019-01-28T12:01:27.096Z,1.83
2019-01-28T12:03:55.224Z,2.10
2019-01-28T12:06:23.395Z,2.13
2019-01-28T12:08:51.522Z,1.70
2019-01-28T12:11:19.659Z,1.50
2019-01-28T12:13:47.811Z,2.00
2019-01-28T12:16:15.960Z,2.10
2019-01-28T12:18:44.071Z,2.03
2019-01-28T12:21:12.227Z,1.93
2019-01-28T12:23:40.356Z,1.70
2019-01-28T12:26:08.488Z,2.30
2019-01-28T12:28:36.659Z,2.37
2019-01-28T12:31:05.047Z,2.10
2019-01-28T12:33:33.195Z,2.03
2019-01-28T12:36:01.367Z,2.90
2019-01-28T12:38:29.483Z,1.43
2019-01-28T12:40:57.628Z,1.70
2019-01-28T12:43:25.784Z,1.83
2019-01-28T12:45:53.914Z,1.90
2019-01-28T12:48:23.159Z,1.27
2019-01-28T12:50:51.504Z,1.27
2019-01-28T12:53:19.619Z,1.30
2019-01-28T12:55:47.753Z,0.80
2019-01-28T12:58:15.907Z,0.80
2019-01-28T13:00:45.671Z,1.20
2019-01-28T13:03:13.808Z,1.40
2019-01-28T13:05:41.992Z,1.23
2019-01-28T13:08:10.125Z,1.30
2019-01-28T13:10:38.280Z,1.50
2019-01-28T13:13:06.459Z,1.33
2019-01-28T13:15:34.931Z,1.17
2019-01-28T13:18:03.060Z,1.13
2019-01-28T13:20:31.224Z,1.13
2019-01-28T13:22:59.361Z,1.10
2019-01-28T13:25:29.123Z,1.07
2019-01-28T13:27:57.287Z,1.20
2019-01-28T13:30:27.036Z,0.87
2019-01-28T13:32:55.234Z,0.70
2019-01-28T13:35:23.407Z,1.40
2019-01-28T13:37:51.541Z,1.20
2019-01-28T13:40:19.674Z,1.50
2019-01-28T13:42:47.828Z,1.70
2019-01-28T13:45:17.031Z,1.90
2019-01-28T13:47:45.679Z,1.67
2019-01-28T13:50:15.315Z,1.80
2019-01-28T13:52:43.444Z,2.57
2019-01-28T13:55:11.695Z,1.37
2019-01-28T13:57:39.869Z,2.23
2019-01-28T14:00:11.551Z,1.93
2019-01-28T14:02:39.687Z,2.57
2019-01-28T14:05:08.647Z,1.10
2019-01-28T14:07:36.789Z,1.57
2019-01-28T14:10:06.547Z,2.20
2019-01-28T14:12:34.705Z,1.70
2019-01-28T14:15:03.491Z,1.87
2019-01-28T14:17:31.637Z,2.50
2019-01-28T14:19:59.792Z,1.40
2019-01-28T14:22:27.929Z,2.60
2019-01-28T14:24:56.067Z,2.10
2019-01-28T14:27:24.240Z,1.63
2019-01-28T14:29:52.378Z,1.83
2019-01-28T14:32:20.495Z,2.23
2019-01-28T14:34:48.661Z,2.00
2019-01-28T14:37:16.787Z,1.90
2019-01-28T14:39:44.924Z,2.10
2019-01-28T14:42:13.080Z,2.03
2019-01-28T14:44:41.216Z,1.83
2019-01-28T14:47:09.335Z,1.50
2019-01-28T14:49:37.491Z,1.60
2019-01-28T14:52:05.624Z,1.93
2019-01-28T14:54:33.757Z,1.73
2019-01-28T14:57:01.915Z,2.17
2019-01-28T14:59:30.055Z,2.17
2019-01-28T15:01:58.192Z,1.80
2019-01-28T15:04:26.352Z,2.47
2019-01-28T15:06:54.476Z,1.83
2019-01-28T15:09:22.611Z,2.10
2019-01-28T15:11:50.772Z,2.10
2019-01-28T15:14:18.919Z,2.10
2019-01-28T15:16:47.048Z,1.70
2019-01-28T15:19:15.213Z,2.23
2019-01-28T15:21:43.358Z,1.97
2019-01-28T15:24:11.500Z,1.87
2019-01-28T15:26:40.683Z,1.40
2019-01-28T15:29:08.907Z,1.77
2019-01-28T15:31:37.049Z,2.20
2019-01-28T15:34:05.211Z,1.27
2019-01-28T15:36:33.339Z,2.13
2019-01-28T15:39:01.464Z,1.87
2019-01-28T15:41:30.059Z,2.10
2019-01-28T15:43:58.203Z,2.10
2019-01-28T15:46:26.360Z,1.63
2019-01-28T15:48:54.524Z,2.87
2019-01-28T15:51:22.662Z,3.13
2019-01-28T15:53:50.800Z,1.93
2019-01-28T15:56:18.955Z,1.60
2019-01-28T15:58:47.090Z,1.97
2019-01-28T16:01:15.240Z,1.30
2019-01-28T16:03:43.407Z,1.90
2019-01-28T16:06:11.651Z,1.70
2019-01-28T16:08:39.767Z,1.40
2019-01-28T16:11:07.928Z,2.30
2019-01-28T16:13:37.706Z,1.53
2019-01-28T16:16:05.838Z,2.07
2019-01-28T16:18:34.743Z,1.93
2019-01-28T16:21:03.416Z,1.67
2019-01-28T16:23:31.547Z,1.87
2019-01-28T16:25:59.707Z,1.70
2019-01-28T16:28:27.845Z,1.80
2019-01-28T16:30:55.981Z,2.23
2019-01-28T16:33:24.186Z,2.00
2019-01-28T16:35:52.436Z,1.77
2019-01-28T16:38:20.566Z,2.07
2019-01-28T16:40:48.723Z,1.60
2019-01-28T16:43:16.854Z,2.10
2019-01-28T16:45:44.991Z,2.17
2019-01-28T16:48:13.262Z,1.47
2019-01-28T16:50:41.626Z,1.57
2019-01-28T16:53:09.746Z,1.60
2019-01-28T16:55:37.904Z,1.83
2019-01-28T16:58:06.123Z,1.90
2019-01-28T17:00:35.868Z,1.77
2019-01-28T17:03:04.939Z,1.90
2019-01-28T17:05:33.077Z,2.00
2019-01-28T17:08:01.204Z,1.97
2019-01-28T17:10:29.356Z,1.90
2019-01-28T17:12:57.493Z,1.80
2019-01-28T17:15:25.619Z,2.00
2019-01-28T17:17:53.779Z,1.43
2019-01-28T17:20:23.190Z,1.07
2019-01-28T17:22:51.324Z,1.17
2019-01-28T17:25:20.655Z,1.50
2019-01-28T17:27:48.787Z,0.90
2019-01-28T17:30:18.476Z,1.10
2019-01-28T17:32:46.640Z,1.40
2019-01-28T17:35:15.678Z,1.70
2019-01-28T17:37:43.815Z,1.07
2019-01-28T17:40:14.512Z,1.37
2019-01-28T17:42:42.765Z,1.53
2019-01-28T17:45:12.276Z,1.30
2019-01-28T17:47:40.745Z,1.77
2019-01-28T17:50:10.499Z,1.87
2019-01-28T17:52:38.628Z,1.40
2019-01-28T17:55:07.560Z,1.50
2019-01-28T17:57:35.695Z,1.37
2019-01-28T18:00:05.528Z,1.93
2019-01-28T18:02:33.699Z,1.57
2019-01-28T18:05:01.831Z,2.07
2019-01-28T18:07:29.959Z,2.00
2019-01-28T18:09:58.131Z,2.03
2019-01-28T18:12:26.264Z,1.83
2019-01-28T18:14:54.404Z,2.30
2019-01-28T18:17:22.568Z,2.33
2019-01-28T18:19:51.248Z,2.40
2019-01-28T18:22:19.374Z,1.80
2019-01-28T18:24:47.531Z,1.80
2019-01-28T18:27:17.303Z,1.67
2019-01-28T18:29:45.552Z,2.20
2019-01-28T18:32:13.720Z,2.50
2019-01-28T18:34:41.854Z,1.87
2019-01-28T18:37:09.987Z,1.87
2019-01-28T18:39:38.147Z,1.40
2019-01-28T18:42:06.286Z,1.67
2019-01-28T18:44:34.409Z,1.70
2019-01-28T18:47:02.639Z,1.47
2019-01-28T18:49:30.775Z,1.23
2019-01-28T18:51:58.908Z,1.60
2019-01-28T18:54:27.078Z,1.23
2019-01-28T18:56:55.665Z,1.83
2019-01-28T18:59:23.752Z,1.60
2019-01-28T19:01:51.911Z,1.40
2019-01-28T19:04:20.106Z,1.57
2019-01-28T19:06:55.814Z,2.00
2019-01-28T19:09:25.594Z,2.10
2019-01-28T19:11:55.359Z,1.30
2019-01-28T19:14:25.167Z,2.27
2019-01-28T19:16:57.960Z,1.93
2019-01-28T19:19:30.447Z,2.23
2019-01-28T19:22:00.227Z,2.17
2019-01-28T19:24:28.356Z,2.70
2019-01-28T19:26:56.521Z,1.93
2019-01-28T19:29:24.663Z,2.30
2019-01-28T19:31:52.793Z,1.77
2019-01-28T19:34:21.015Z,2.40
2019-01-28T19:36:49.151Z,2.27
2019-01-28T19:39:17.290Z,2.03
2019-01-28T19:41:45.450Z,1.70
2019-01-28T19:44:13.572Z,1.80
2019-01-28T19:46:41.712Z,1.90
2019-01-28T19:49:09.880Z,2.30
2019-01-28T19:51:38.015Z,2.53
2019-01-28T19:54:06.217Z,2.00
2019-01-28T19:56:35.811Z,2.37
2019-01-28T19:59:03.948Z,2.23
2019-01-28T20:01:32.547Z,2.30
2019-01-28T20:04:00.715Z,2.07
2019-01-28T20:06:28.847Z,2.20
2019-01-28T20:08:56.988Z,2.20
2019-01-28T20:11:25.160Z,2.17
2019-01-28T20:13:53.315Z,2.40
2019-01-28T20:16:21.480Z,2.27
2019-01-28T20:18:49.615Z,2.83
2019-01-28T20:21:23.589Z,2.33
2019-01-28T20:23:47.532Z,2.90
2019-01-28T20:26:15.740Z,2.03
2019-01-28T20:28:43.887Z,2.53
2019-01-28T20:31:12.060Z,2.10
2019-01-28T20:33:40.237Z,2.13
2019-01-28T20:36:08.372Z,1.97
2019-01-28T20:38:36.515Z,1.77
2019-01-28T20:41:05.753Z,2.07
2019-01-28T20:43:33.884Z,1.70
2019-01-28T20:46:02.015Z,1.60
2019-01-28T20:48:30.180Z,1.30
2019-01-28T20:50:58.331Z,1.57
2019-01-28T20:53:26.456Z,1.40
2019-01-28T20:55:54.624Z,1.50
2019-01-28T20:58:22.745Z,1.63
2019-01-28T21:00:50.903Z,1.43
2019-01-28T21:03:19.184Z,1.33
2019-01-28T21:05:47.293Z,1.50
2019-01-28T21:08:15.413Z,1.60
2019-01-28T21:10:43.586Z,1.93
2019-01-28T21:13:11.708Z,1.10
2019-01-28T21:15:39.836Z,1.83
2019-01-28T21:18:07.986Z,2.00
2019-01-28T21:20:36.117Z,2.07
2019-01-28T21:23:04.239Z,2.60
2019-01-28T21:25:32.407Z,2.30
2019-01-28T21:28:00.541Z,1.40
2019-01-28T21:30:34.616Z,1.93
2019-01-28T21:33:02.772Z,1.83
2019-01-28T21:35:41.311Z,2.27
2019-01-28T21:38:11.119Z,2.43
2019-01-28T21:40:39.253Z,2.30
2019-01-28T21:43:07.391Z,2.20
2019-01-28T21:45:35.567Z,1.70
2019-01-28T21:48:04.059Z,2.13
2019-01-28T21:50:32.549Z,1.50
2019-01-28T21:53:00.704Z,1.30
2019-01-28T21:55:28.835Z,1.87
2019-01-28T21:57:56.972Z,1.70
2019-01-28T22:00:25.128Z,1.47
2019-01-28T22:02:53.254Z,1.50
2019-01-28T22:05:21.479Z,1.50
2019-01-28T22:07:49.631Z,1.27
2019-01-28T22:10:17.763Z,1.60
2019-01-28T22:12:45.898Z,1.30
2019-01-28T22:15:17.222Z,1.43
2019-01-28T22:17:45.349Z,1.17
2019-01-28T22:20:16.457Z,1.17
2019-01-28T22:22:44.615Z,1.40
2019-01-28T22:25:13.712Z,1.20
2019-01-28T22:27:41.843Z,1.40
2019-01-28T22:30:17.407Z,1.03
2019-01-28T22:32:45.541Z,1.50
2019-01-28T22:35:13.672Z,1.50
2019-01-28T22:37:42.118Z,1.70
2019-01-28T22:40:12.133Z,1.17
2019-01-28T22:42:40.267Z,1.77
2019-01-28T22:45:10.295Z,1.47
2019-01-28T22:47:38.427Z,1.60
2019-01-28T22:50:08.357Z,1.43
2019-01-28T22:52:36.518Z,1.53
2019-01-28T22:55:05.719Z,2.13
2019-01-28T22:57:33.854Z,1.57
2019-01-28T23:00:02.020Z,1.20
2019-01-28T23:02:30.134Z,2.53
2019-01-28T23:04:58.259Z,1.83
2019-01-28T23:07:26.347Z,1.90
2019-01-28T23:09:54.483Z,1.40
2019-01-28T23:12:22.607Z,1.57
2019-01-28T23:14:50.772Z,1.73
2019-01-28T23:17:18.909Z,1.87
2019-01-28T23:19:47.051Z,2.07
2019-01-28T23:22:16.458Z,1.83
2019-01-28T23:24:45.116Z,1.80
2019-01-28T23:27:13.249Z,2.07
2019-01-28T23:29:41.409Z,1.73
2019-01-28T23:32:09.531Z,1.57
2019-01-28T23:34:37.788Z,1.83
2019-01-28T23:37:05.947Z,1.40
2019-01-28T23:39:34.155Z,1.73
2019-01-28T23:42:02.292Z,1.87
2019-01-28T23:44:30.449Z,1.53
2019-01-28T23:46:58.579Z,1.60
2019-01-28T23:49:26.715Z,1.60
2019-01-28T23:51:54.957Z,2.53
2019-01-28T23:54:23.178Z,2.43
2019-01-28T23:56:51.306Z,2.30
2019-01-28T23:59:19.475Z,1.77
